sensor_id;sensor_type;location;lat;lon;timestamp;P1;durP1;ratioP1;P2;durP2;ratioP2
64210;SDS011;72187;48.514;14.394;2023-08-20T00:00:23;11.20;;;9.50;;
64210;SDS011;72187;48.514;14.394;2023-08-20T00:01:19;11.90;;;9.00;;
64210;SDS011;72187;48.514;14.394;2023-08-20T00:01:56;10.10;;;9.00;;
64210;SDS011;72187;48.514;14.394;2023-08-20T00:02:31;10.30;;;9.20;;
64210;SDS011;72187;48.514;14.394;2023-08-20T00:03:12;10.00;;;9.00;;
64210;SDS011;72187;48.514;14.394;2023-08-20T00:03:52;10.50;;;9.40;;
64210;SDS011;72187;48.514;14.394;2023-08-20T00:04:26;11.00;;;9.00;;
64210;SDS011;72187;48.514;14.394;2023-08-20T00:05:00;11.20;;;9.20;;
64210;SDS011;72187;48.514;14.394;2023-08-20T00:05:35;10.20;;;8.90;;
64210;SDS011;72187;48.514;14.394;2023-08-20T00:06:09;9.80;;;8.40;;
64210;SDS011;72187;48.514;14.394;2023-08-20T00:06:43;12.90;;;8.60;;
64210;SDS011;72187;48.514;14.394;2023-08-20T00:07:19;9.50;;;8.60;;
64210;SDS011;72187;48.514;14.394;2023-08-20T00:07:52;10.30;;;8.50;;
64210;SDS011;72187;48.514;14.394;2023-08-20T00:08:26;12.50;;;9.10;;
64210;SDS011;72187;48.514;14.394;2023-08-20T00:08:59;9.60;;;8.60;;
64210;SDS011;72187;48.514;14.394;2023-08-20T00:09:33;10.40;;;8.80;;
64210;SDS011;72187;48.514;14.394;2023-08-20T00:10:06;9.80;;;8.80;;
64210;SDS011;72187;48.514;14.394;2023-08-20T00:10:40;9.80;;;8.80;;
64210;SDS011;72187;48.514;14.394;2023-08-20T00:11:14;11.40;;;8.80;;
64210;SDS011;72187;48.514;14.394;2023-08-20T00:11:52;10.40;;;9.30;;
64210;SDS011;72187;48.514;14.394;2023-08-20T00:12:28;10.90;;;9.40;;
64210;SDS011;72187;48.514;14.394;2023-08-20T00:13:05;11.40;;;9.30;;
64210;SDS011;72187;48.514;14.394;2023-08-20T00:13:38;10.60;;;9.50;;
64210;SDS011;72187;48.514;14.394;2023-08-20T00:14:15;13.70;;;9.90;;
64210;SDS011;72187;48.514;14.394;2023-08-20T00:14:53;10.70;;;9.70;;
64210;SDS011;72187;48.514;14.394;2023-08-20T00:15:39;11.40;;;10.30;;
64210;SDS011;72187;48.514;14.394;2023-08-20T00:16:13;11.10;;;10.10;;
64210;SDS011;72187;48.514;14.394;2023-08-20T00:16:46;12.40;;;10.70;;
64210;SDS011;72187;48.514;14.394;2023-08-20T00:17:20;11.10;;;10.10;;
64210;SDS011;72187;48.514;14.394;2023-08-20T00:17:54;11.80;;;10.70;;
64210;SDS011;72187;48.514;14.394;2023-08-20T00:18:28;11.80;;;10.60;;
64210;SDS011;72187;48.514;14.394;2023-08-20T00:19:02;11.70;;;10.60;;
64210;SDS011;72187;48.514;14.394;2023-08-20T00:19:36;11.50;;;10.40;;
64210;SDS011;72187;48.514;14.394;2023-08-20T00:20:09;14.40;;;10.40;;
64210;SDS011;72187;48.514;14.394;2023-08-20T00:20:46;13.50;;;10.70;;
64210;SDS011;72187;48.514;14.394;2023-08-20T00:21:19;12.20;;;11.00;;
64210;SDS011;72187;48.514;14.394;2023-08-20T00:21:53;11.70;;;10.60;;
64210;SDS011;72187;48.514;14.394;2023-08-20T00:22:27;12.50;;;10.80;;
64210;SDS011;72187;48.514;14.394;2023-08-20T00:23:03;14.50;;;10.70;;
64210;SDS011;72187;48.514;14.394;2023-08-20T00:23:37;12.00;;;10.90;;
64210;SDS011;72187;48.514;14.394;2023-08-20T00:24:11;12.30;;;11.00;;
64210;SDS011;72187;48.514;14.394;2023-08-20T00:24:46;14.00;;;10.30;;
64210;SDS011;72187;48.514;14.394;2023-08-20T00:25:20;11.60;;;10.50;;
64210;SDS011;72187;48.514;14.394;2023-08-20T00:25:53;12.30;;;11.10;;
64210;SDS011;72187;48.514;14.394;2023-08-20T00:26:27;11.30;;;10.10;;
64210;SDS011;72187;48.514;14.394;2023-08-20T00:27:02;11.30;;;10.20;;
64210;SDS011;72187;48.514;14.394;2023-08-20T00:27:35;12.10;;;10.90;;
64210;SDS011;72187;48.514;14.394;2023-08-20T00:28:10;12.30;;;10.80;;
64210;SDS011;72187;48.514;14.394;2023-08-20T00:28:45;11.70;;;10.50;;
64210;SDS011;72187;48.514;14.394;2023-08-20T00:29:18;11.30;;;10.30;;
64210;SDS011;72187;48.514;14.394;2023-08-20T00:29:52;12.00;;;10.70;;
64210;SDS011;72187;48.514;14.394;2023-08-20T00:30:26;12.00;;;10.80;;
64210;SDS011;72187;48.514;14.394;2023-08-20T00:31:00;13.70;;;10.60;;
64210;SDS011;72187;48.514;14.394;2023-08-20T00:31:35;11.20;;;10.10;;
64210;SDS011;72187;48.514;14.394;2023-08-20T00:32:08;12.60;;;11.00;;
64210;SDS011;72187;48.514;14.394;2023-08-20T00:32:42;11.80;;;10.50;;
64210;SDS011;72187;48.514;14.394;2023-08-20T00:33:17;11.90;;;10.50;;
64210;SDS011;72187;48.514;14.394;2023-08-20T00:33:50;13.30;;;10.60;;
64210;SDS011;72187;48.514;14.394;2023-08-20T00:34:38;11.70;;;10.40;;
64210;SDS011;72187;48.514;14.394;2023-08-20T00:35:13;10.80;;;9.70;;
64210;SDS011;72187;48.514;14.394;2023-08-20T00:35:47;12.10;;;10.30;;
64210;SDS011;72187;48.514;14.394;2023-08-20T00:36:20;11.60;;;9.90;;
64210;SDS011;72187;48.514;14.394;2023-08-20T00:36:54;11.20;;;10.20;;
64210;SDS011;72187;48.514;14.394;2023-08-20T00:37:28;10.30;;;9.20;;
64210;SDS011;72187;48.514;14.394;2023-08-20T00:38:02;12.20;;;10.00;;
64210;SDS011;72187;48.514;14.394;2023-08-20T00:38:36;11.40;;;10.10;;
64210;SDS011;72187;48.514;14.394;2023-08-20T00:39:10;10.80;;;9.80;;
64210;SDS011;72187;48.514;14.394;2023-08-20T00:39:43;11.70;;;10.20;;
64210;SDS011;72187;48.514;14.394;2023-08-20T00:40:17;12.10;;;10.20;;
64210;SDS011;72187;48.514;14.394;2023-08-20T00:40:50;11.50;;;10.40;;
64210;SDS011;72187;48.514;14.394;2023-08-20T00:41:24;10.90;;;9.80;;
64210;SDS011;72187;48.514;14.394;2023-08-20T00:41:57;11.50;;;10.30;;
64210;SDS011;72187;48.514;14.394;2023-08-20T00:42:31;11.80;;;10.60;;
64210;SDS011;72187;48.514;14.394;2023-08-20T00:43:04;11.40;;;10.30;;
64210;SDS011;72187;48.514;14.394;2023-08-20T00:43:39;11.70;;;10.00;;
64210;SDS011;72187;48.514;14.394;2023-08-20T00:44:13;11.70;;;10.60;;
64210;SDS011;72187;48.514;14.394;2023-08-20T00:44:47;12.80;;;10.60;;
64210;SDS011;72187;48.514;14.394;2023-08-20T00:45:21;11.30;;;10.20;;
64210;SDS011;72187;48.514;14.394;2023-08-20T00:45:58;10.80;;;9.30;;
64210;SDS011;72187;48.514;14.394;2023-08-20T00:46:32;10.80;;;9.80;;
64210;SDS011;72187;48.514;14.394;2023-08-20T00:47:05;10.30;;;9.30;;
64210;SDS011;72187;48.514;14.394;2023-08-20T00:47:39;10.90;;;8.80;;
64210;SDS011;72187;48.514;14.394;2023-08-20T00:48:13;12.40;;;9.40;;
64210;SDS011;72187;48.514;14.394;2023-08-20T00:48:47;11.70;;;9.70;;
64210;SDS011;72187;48.514;14.394;2023-08-20T00:49:21;10.30;;;9.00;;
64210;SDS011;72187;48.514;14.394;2023-08-20T00:49:54;10.80;;;9.00;;
64210;SDS011;72187;48.514;14.394;2023-08-20T00:50:29;10.00;;;9.00;;
64210;SDS011;72187;48.514;14.394;2023-08-20T00:51:02;9.50;;;8.60;;
64210;SDS011;72187;48.514;14.394;2023-08-20T00:51:36;9.80;;;8.80;;
64210;SDS011;72187;48.514;14.394;2023-08-20T00:52:12;10.00;;;9.00;;
64210;SDS011;72187;48.514;14.394;2023-08-20T00:52:48;10.50;;;9.30;;
64210;SDS011;72187;48.514;14.394;2023-08-20T00:53:22;10.10;;;9.10;;
64210;SDS011;72187;48.514;14.394;2023-08-20T00:53:59;10.30;;;9.20;;
64210;SDS011;72187;48.514;14.394;2023-08-20T00:54:33;9.90;;;8.90;;
64210;SDS011;72187;48.514;14.394;2023-08-20T00:55:09;10.40;;;9.30;;
64210;SDS011;72187;48.514;14.394;2023-08-20T00:55:43;10.20;;;9.20;;
64210;SDS011;72187;48.514;14.394;2023-08-20T00:56:17;10.20;;;9.20;;
64210;SDS011;72187;48.514;14.394;2023-08-20T00:56:51;11.30;;;9.20;;
64210;SDS011;72187;48.514;14.394;2023-08-20T00:57:25;13.70;;;10.20;;
64210;SDS011;72187;48.514;14.394;2023-08-20T00:57:59;10.40;;;9.40;;
64210;SDS011;72187;48.514;14.394;2023-08-20T00:58:33;11.50;;;10.40;;
64210;SDS011;72187;48.514;14.394;2023-08-20T00:59:07;11.30;;;10.10;;
64210;SDS011;72187;48.514;14.394;2023-08-20T00:59:41;11.20;;;10.00;;
64210;SDS011;72187;48.514;14.394;2023-08-20T01:00:14;11.80;;;10.50;;
64210;SDS011;72187;48.514;14.394;2023-08-20T01:00:50;12.10;;;10.70;;
64210;SDS011;72187;48.514;14.394;2023-08-20T01:01:24;11.50;;;10.20;;
64210;SDS011;72187;48.514;14.394;2023-08-20T01:01:58;12.10;;;10.70;;
64210;SDS011;72187;48.514;14.394;2023-08-20T01:02:31;11.40;;;10.10;;
64210;SDS011;72187;48.514;14.394;2023-08-20T01:03:05;13.30;;;10.00;;
64210;SDS011;72187;48.514;14.394;2023-08-20T01:03:39;13.10;;;10.80;;
64210;SDS011;72187;48.514;14.394;2023-08-20T01:04:12;12.30;;;10.40;;
64210;SDS011;72187;48.514;14.394;2023-08-20T01:04:46;11.50;;;10.30;;
64210;SDS011;72187;48.514;14.394;2023-08-20T01:05:21;11.40;;;10.20;;
64210;SDS011;72187;48.514;14.394;2023-08-20T01:05:57;11.40;;;9.70;;
64210;SDS011;72187;48.514;14.394;2023-08-20T01:06:51;10.50;;;9.50;;
64210;SDS011;72187;48.514;14.394;2023-08-20T01:07:43;10.40;;;9.30;;
64210;SDS011;72187;48.514;14.394;2023-08-20T01:08:27;10.30;;;9.30;;
64210;SDS011;72187;48.514;14.394;2023-08-20T01:10:42;10.10;;;9.00;;
64210;SDS011;72187;48.514;14.394;2023-08-20T01:11:30;10.70;;;9.00;;
64210;SDS011;72187;48.514;14.394;2023-08-20T01:12:11;10.10;;;9.10;;
64210;SDS011;72187;48.514;14.394;2023-08-20T01:12:46;10.10;;;9.10;;
64210;SDS011;72187;48.514;14.394;2023-08-20T01:13:21;11.40;;;8.90;;
64210;SDS011;72187;48.514;14.394;2023-08-20T01:13:55;12.00;;;9.10;;
64210;SDS011;72187;48.514;14.394;2023-08-20T01:14:29;10.70;;;9.00;;
64210;SDS011;72187;48.514;14.394;2023-08-20T01:15:02;11.10;;;9.40;;
64210;SDS011;72187;48.514;14.394;2023-08-20T01:15:36;10.20;;;9.10;;
64210;SDS011;72187;48.514;14.394;2023-08-20T01:16:10;10.20;;;9.30;;
64210;SDS011;72187;48.514;14.394;2023-08-20T01:16:44;11.60;;;9.50;;
64210;SDS011;72187;48.514;14.394;2023-08-20T01:17:18;10.10;;;9.10;;
64210;SDS011;72187;48.514;14.394;2023-08-20T01:17:52;10.90;;;9.80;;
64210;SDS011;72187;48.514;14.394;2023-08-20T01:18:25;11.20;;;10.00;;
64210;SDS011;72187;48.514;14.394;2023-08-20T01:18:59;11.20;;;9.40;;
64210;SDS011;72187;48.514;14.394;2023-08-20T01:19:35;11.20;;;10.10;;
64210;SDS011;72187;48.514;14.394;2023-08-20T01:20:09;10.80;;;9.60;;
64210;SDS011;72187;48.514;14.394;2023-08-20T01:21:02;10.90;;;9.90;;
64210;SDS011;72187;48.514;14.394;2023-08-20T01:22:00;10.70;;;9.70;;
64210;SDS011;72187;48.514;14.394;2023-08-20T01:23:05;11.40;;;8.90;;
64210;SDS011;72187;48.514;14.394;2023-08-20T01:26:56;10.10;;;9.10;;
64210;SDS011;72187;48.514;14.394;2023-08-20T01:28:51;11.50;;;9.60;;
64210;SDS011;72187;48.514;14.394;2023-08-20T01:29:25;10.50;;;9.30;;
64210;SDS011;72187;48.514;14.394;2023-08-20T01:29:59;11.00;;;9.90;;
64210;SDS011;72187;48.514;14.394;2023-08-20T01:30:36;10.90;;;9.80;;
64210;SDS011;72187;48.514;14.394;2023-08-20T01:31:10;11.30;;;10.20;;
64210;SDS011;72187;48.514;14.394;2023-08-20T01:31:45;11.10;;;10.00;;
64210;SDS011;72187;48.514;14.394;2023-08-20T01:32:19;11.30;;;10.20;;
64210;SDS011;72187;48.514;14.394;2023-08-20T01:32:53;10.90;;;9.90;;
64210;SDS011;72187;48.514;14.394;2023-08-20T01:34:03;11.40;;;9.50;;
64210;SDS011;72187;48.514;14.394;2023-08-20T01:34:37;11.00;;;9.70;;
64210;SDS011;72187;48.514;14.394;2023-08-20T01:35:11;10.80;;;9.80;;
64210;SDS011;72187;48.514;14.394;2023-08-20T01:35:48;10.60;;;9.50;;
64210;SDS011;72187;48.514;14.394;2023-08-20T01:36:22;10.50;;;9.40;;
64210;SDS011;72187;48.514;14.394;2023-08-20T01:36:55;11.10;;;9.90;;
64210;SDS011;72187;48.514;14.394;2023-08-20T01:37:28;12.70;;;9.80;;
64210;SDS011;72187;48.514;14.394;2023-08-20T01:38:02;11.20;;;9.90;;
64210;SDS011;72187;48.514;14.394;2023-08-20T01:38:36;10.60;;;9.60;;
64210;SDS011;72187;48.514;14.394;2023-08-20T01:39:10;11.20;;;10.10;;
64210;SDS011;72187;48.514;14.394;2023-08-20T01:39:43;10.90;;;9.80;;
64210;SDS011;72187;48.514;14.394;2023-08-20T01:40:16;10.60;;;9.50;;
64210;SDS011;72187;48.514;14.394;2023-08-20T01:40:50;13.50;;;9.90;;
64210;SDS011;72187;48.514;14.394;2023-08-20T01:41:24;10.80;;;9.60;;
64210;SDS011;72187;48.514;14.394;2023-08-20T01:41:59;10.60;;;9.50;;
64210;SDS011;72187;48.514;14.394;2023-08-20T01:42:32;10.80;;;9.40;;
64210;SDS011;72187;48.514;14.394;2023-08-20T01:43:06;11.80;;;10.00;;
64210;SDS011;72187;48.514;14.394;2023-08-20T01:43:40;12.60;;;10.20;;
64210;SDS011;72187;48.514;14.394;2023-08-20T01:44:13;10.50;;;9.40;;
64210;SDS011;72187;48.514;14.394;2023-08-20T01:44:46;11.20;;;10.20;;
64210;SDS011;72187;48.514;14.394;2023-08-20T01:45:20;10.80;;;9.60;;
64210;SDS011;72187;48.514;14.394;2023-08-20T01:45:54;11.80;;;10.50;;
64210;SDS011;72187;48.514;14.394;2023-08-20T01:46:28;12.10;;;9.90;;
64210;SDS011;72187;48.514;14.394;2023-08-20T01:47:01;12.30;;;9.40;;
64210;SDS011;72187;48.514;14.394;2023-08-20T01:47:35;12.50;;;10.10;;
64210;SDS011;72187;48.514;14.394;2023-08-20T01:48:09;10.90;;;9.80;;
64210;SDS011;72187;48.514;14.394;2023-08-20T01:48:42;10.60;;;9.50;;
64210;SDS011;72187;48.514;14.394;2023-08-20T01:51:16;12.00;;;10.30;;
64210;SDS011;72187;48.514;14.394;2023-08-20T01:51:49;11.20;;;10.00;;
64210;SDS011;72187;48.514;14.394;2023-08-20T01:52:23;11.30;;;9.40;;
64210;SDS011;72187;48.514;14.394;2023-08-20T01:52:56;11.50;;;9.90;;
64210;SDS011;72187;48.514;14.394;2023-08-20T01:53:29;11.00;;;9.90;;
64210;SDS011;72187;48.514;14.394;2023-08-20T01:54:03;11.40;;;10.30;;
64210;SDS011;72187;48.514;14.394;2023-08-20T01:54:36;12.20;;;9.90;;
64210;SDS011;72187;48.514;14.394;2023-08-20T01:55:11;11.60;;;10.50;;
64210;SDS011;72187;48.514;14.394;2023-08-20T01:55:44;12.20;;;10.20;;
64210;SDS011;72187;48.514;14.394;2023-08-20T01:56:18;11.70;;;10.30;;
64210;SDS011;72187;48.514;14.394;2023-08-20T01:56:51;11.50;;;9.90;;
64210;SDS011;72187;48.514;14.394;2023-08-20T01:57:25;11.50;;;10.50;;
64210;SDS011;72187;48.514;14.394;2023-08-20T01:57:59;11.70;;;10.40;;
64210;SDS011;72187;48.514;14.394;2023-08-20T01:58:32;11.20;;;10.10;;
64210;SDS011;72187;48.514;14.394;2023-08-20T01:59:05;11.40;;;10.40;;
64210;SDS011;72187;48.514;14.394;2023-08-20T01:59:39;11.70;;;10.50;;
64210;SDS011;72187;48.514;14.394;2023-08-20T02:00:13;11.80;;;10.60;;
64210;SDS011;72187;48.514;14.394;2023-08-20T02:00:46;12.30;;;11.10;;
64210;SDS011;72187;48.514;14.394;2023-08-20T02:01:20;12.00;;;10.70;;
64210;SDS011;72187;48.514;14.394;2023-08-20T02:01:54;12.10;;;10.60;;
64210;SDS011;72187;48.514;14.394;2023-08-20T02:02:28;11.50;;;10.40;;
64210;SDS011;72187;48.514;14.394;2023-08-20T02:03:01;12.00;;;10.80;;
64210;SDS011;72187;48.514;14.394;2023-08-20T02:03:36;11.70;;;10.50;;
64210;SDS011;72187;48.514;14.394;2023-08-20T02:04:11;12.70;;;10.50;;
64210;SDS011;72187;48.514;14.394;2023-08-20T02:04:44;11.50;;;10.40;;
64210;SDS011;72187;48.514;14.394;2023-08-20T02:05:18;15.60;;;10.90;;
64210;SDS011;72187;48.514;14.394;2023-08-20T02:05:51;12.10;;;11.00;;
64210;SDS011;72187;48.514;14.394;2023-08-20T02:06:28;11.40;;;10.30;;
64210;SDS011;72187;48.514;14.394;2023-08-20T02:07:01;12.20;;;10.60;;
64210;SDS011;72187;48.514;14.394;2023-08-20T02:07:35;11.80;;;10.60;;
64210;SDS011;72187;48.514;14.394;2023-08-20T02:08:09;11.60;;;10.40;;
64210;SDS011;72187;48.514;14.394;2023-08-20T02:08:43;10.90;;;9.90;;
64210;SDS011;72187;48.514;14.394;2023-08-20T02:09:17;11.00;;;9.90;;
64210;SDS011;72187;48.514;14.394;2023-08-20T02:09:52;11.40;;;9.80;;
64210;SDS011;72187;48.514;14.394;2023-08-20T02:10:26;11.20;;;9.80;;
64210;SDS011;72187;48.514;14.394;2023-08-20T02:11:00;10.50;;;9.60;;
64210;SDS011;72187;48.514;14.394;2023-08-20T02:11:34;10.50;;;9.50;;
64210;SDS011;72187;48.514;14.394;2023-08-20T02:12:09;10.60;;;9.60;;
64210;SDS011;72187;48.514;14.394;2023-08-20T02:12:44;11.30;;;10.10;;
64210;SDS011;72187;48.514;14.394;2023-08-20T02:13:22;11.40;;;10.20;;
64210;SDS011;72187;48.514;14.394;2023-08-20T02:13:56;10.30;;;9.40;;
64210;SDS011;72187;48.514;14.394;2023-08-20T02:14:30;10.40;;;9.30;;
64210;SDS011;72187;48.514;14.394;2023-08-20T02:15:08;10.70;;;9.30;;
64210;SDS011;72187;48.514;14.394;2023-08-20T02:15:42;10.70;;;9.60;;
64210;SDS011;72187;48.514;14.394;2023-08-20T02:16:15;11.20;;;9.80;;
64210;SDS011;72187;48.514;14.394;2023-08-20T02:16:50;11.20;;;10.00;;
64210;SDS011;72187;48.514;14.394;2023-08-20T02:17:26;11.20;;;9.90;;
64210;SDS011;72187;48.514;14.394;2023-08-20T02:18:00;12.00;;;10.20;;
64210;SDS011;72187;48.514;14.394;2023-08-20T02:18:34;11.10;;;10.10;;
64210;SDS011;72187;48.514;14.394;2023-08-20T02:19:10;11.40;;;10.30;;
64210;SDS011;72187;48.514;14.394;2023-08-20T02:19:43;10.90;;;9.80;;
64210;SDS011;72187;48.514;14.394;2023-08-20T02:20:17;12.00;;;10.80;;
64210;SDS011;72187;48.514;14.394;2023-08-20T02:20:51;11.20;;;10.10;;
64210;SDS011;72187;48.514;14.394;2023-08-20T02:21:25;11.80;;;10.70;;
64210;SDS011;72187;48.514;14.394;2023-08-20T02:21:58;11.90;;;10.70;;
64210;SDS011;72187;48.514;14.394;2023-08-20T02:22:32;12.30;;;10.30;;
64210;SDS011;72187;48.514;14.394;2023-08-20T02:23:07;12.60;;;10.30;;
64210;SDS011;72187;48.514;14.394;2023-08-20T02:23:40;12.30;;;10.60;;
64210;SDS011;72187;48.514;14.394;2023-08-20T02:24:14;12.80;;;11.00;;
64210;SDS011;72187;48.514;14.394;2023-08-20T02:24:47;12.10;;;10.70;;
64210;SDS011;72187;48.514;14.394;2023-08-20T02:25:22;11.90;;;10.70;;
64210;SDS011;72187;48.514;14.394;2023-08-20T02:25:59;11.60;;;10.50;;
64210;SDS011;72187;48.514;14.394;2023-08-20T02:26:35;11.60;;;10.50;;
64210;SDS011;72187;48.514;14.394;2023-08-20T02:27:08;11.60;;;10.50;;
64210;SDS011;72187;48.514;14.394;2023-08-20T02:27:42;11.60;;;10.40;;
64210;SDS011;72187;48.514;14.394;2023-08-20T02:28:16;11.30;;;10.20;;
64210;SDS011;72187;48.514;14.394;2023-08-20T02:28:50;12.10;;;10.80;;
64210;SDS011;72187;48.514;14.394;2023-08-20T02:29:23;12.50;;;10.50;;
64210;SDS011;72187;48.514;14.394;2023-08-20T02:29:57;12.20;;;10.40;;
64210;SDS011;72187;48.514;14.394;2023-08-20T02:30:30;11.40;;;10.30;;
64210;SDS011;72187;48.514;14.394;2023-08-20T02:31:04;11.70;;;10.60;;
64210;SDS011;72187;48.514;14.394;2023-08-20T02:31:38;12.40;;;10.70;;
64210;SDS011;72187;48.514;14.394;2023-08-20T02:32:11;11.30;;;10.30;;
64210;SDS011;72187;48.514;14.394;2023-08-20T02:32:45;12.00;;;10.90;;
64210;SDS011;72187;48.514;14.394;2023-08-20T02:33:18;12.30;;;11.00;;
64210;SDS011;72187;48.514;14.394;2023-08-20T02:33:52;12.30;;;10.70;;
64210;SDS011;72187;48.514;14.394;2023-08-20T02:34:26;12.10;;;10.90;;
64210;SDS011;72187;48.514;14.394;2023-08-20T02:34:59;11.50;;;10.30;;
64210;SDS011;72187;48.514;14.394;2023-08-20T02:35:33;12.10;;;10.30;;
64210;SDS011;72187;48.514;14.394;2023-08-20T02:36:07;12.10;;;10.90;;
64210;SDS011;72187;48.514;14.394;2023-08-20T02:36:40;12.30;;;11.00;;
64210;SDS011;72187;48.514;14.394;2023-08-20T02:37:14;12.70;;;11.50;;
64210;SDS011;72187;48.514;14.394;2023-08-20T02:37:48;12.30;;;11.10;;
64210;SDS011;72187;48.514;14.394;2023-08-20T02:38:21;12.70;;;11.40;;
64210;SDS011;72187;48.514;14.394;2023-08-20T02:38:55;12.30;;;11.10;;
64210;SDS011;72187;48.514;14.394;2023-08-20T02:39:29;11.80;;;10.60;;
64210;SDS011;72187;48.514;14.394;2023-08-20T02:40:02;11.50;;;10.50;;
64210;SDS011;72187;48.514;14.394;2023-08-20T02:40:39;12.90;;;11.40;;
64210;SDS011;72187;48.514;14.394;2023-08-20T02:41:15;12.80;;;11.30;;
64210;SDS011;72187;48.514;14.394;2023-08-20T02:41:48;12.20;;;10.80;;
64210;SDS011;72187;48.514;14.394;2023-08-20T02:42:22;12.60;;;11.30;;
64210;SDS011;72187;48.514;14.394;2023-08-20T02:42:55;12.10;;;11.00;;
64210;SDS011;72187;48.514;14.394;2023-08-20T02:43:29;12.10;;;10.90;;
64210;SDS011;72187;48.514;14.394;2023-08-20T02:44:03;12.40;;;11.20;;
64210;SDS011;72187;48.514;14.394;2023-08-20T02:44:36;12.90;;;11.70;;
64210;SDS011;72187;48.514;14.394;2023-08-20T02:45:10;12.50;;;11.20;;
64210;SDS011;72187;48.514;14.394;2023-08-20T02:45:43;14.10;;;11.50;;
64210;SDS011;72187;48.514;14.394;2023-08-20T02:46:17;14.60;;;11.20;;
64210;SDS011;72187;48.514;14.394;2023-08-20T02:46:51;12.40;;;11.20;;
64210;SDS011;72187;48.514;14.394;2023-08-20T02:47:24;12.70;;;11.50;;
64210;SDS011;72187;48.514;14.394;2023-08-20T02:47:59;11.90;;;10.80;;
64210;SDS011;72187;48.514;14.394;2023-08-20T02:48:33;12.40;;;10.60;;
64210;SDS011;72187;48.514;14.394;2023-08-20T02:49:06;11.40;;;10.20;;
64210;SDS011;72187;48.514;14.394;2023-08-20T02:49:40;13.20;;;10.30;;
64210;SDS011;72187;48.514;14.394;2023-08-20T02:50:13;12.40;;;10.20;;
64210;SDS011;72187;48.514;14.394;2023-08-20T02:50:47;11.60;;;10.50;;
64210;SDS011;72187;48.514;14.394;2023-08-20T02:51:21;11.30;;;9.90;;
64210;SDS011;72187;48.514;14.394;2023-08-20T02:51:55;11.30;;;10.10;;
64210;SDS011;72187;48.514;14.394;2023-08-20T02:52:28;11.60;;;10.40;;
64210;SDS011;72187;48.514;14.394;2023-08-20T02:53:02;11.80;;;10.30;;
64210;SDS011;72187;48.514;14.394;2023-08-20T02:53:36;11.90;;;10.60;;
64210;SDS011;72187;48.514;14.394;2023-08-20T02:54:10;11.90;;;10.70;;
64210;SDS011;72187;48.514;14.394;2023-08-20T02:54:43;11.30;;;10.20;;
64210;SDS011;72187;48.514;14.394;2023-08-20T02:55:16;11.70;;;10.50;;
64210;SDS011;72187;48.514;14.394;2023-08-20T02:55:50;11.40;;;10.30;;
64210;SDS011;72187;48.514;14.394;2023-08-20T02:56:23;12.10;;;10.20;;
64210;SDS011;72187;48.514;14.394;2023-08-20T02:56:57;12.00;;;10.30;;
64210;SDS011;72187;48.514;14.394;2023-08-20T02:57:31;11.30;;;10.10;;
64210;SDS011;72187;48.514;14.394;2023-08-20T02:58:06;11.70;;;10.60;;
64210;SDS011;72187;48.514;14.394;2023-08-20T02:58:41;11.30;;;10.00;;
64210;SDS011;72187;48.514;14.394;2023-08-20T02:59:14;11.70;;;10.10;;
64210;SDS011;72187;48.514;14.394;2023-08-20T02:59:47;10.60;;;9.50;;
64210;SDS011;72187;48.514;14.394;2023-08-20T03:00:21;10.60;;;9.60;;
64210;SDS011;72187;48.514;14.394;2023-08-20T03:00:54;11.00;;;9.90;;
64210;SDS011;72187;48.514;14.394;2023-08-20T03:01:28;10.70;;;9.70;;
64210;SDS011;72187;48.514;14.394;2023-08-20T03:02:02;11.00;;;9.90;;
64210;SDS011;72187;48.514;14.394;2023-08-20T03:02:37;10.40;;;9.40;;
64210;SDS011;72187;48.514;14.394;2023-08-20T03:03:10;12.80;;;10.00;;
64210;SDS011;72187;48.514;14.394;2023-08-20T03:03:45;10.80;;;9.70;;
64210;SDS011;72187;48.514;14.394;2023-08-20T03:04:19;11.00;;;9.90;;
64210;SDS011;72187;48.514;14.394;2023-08-20T03:04:52;11.50;;;10.20;;
64210;SDS011;72187;48.514;14.394;2023-08-20T03:05:27;11.70;;;9.90;;
64210;SDS011;72187;48.514;14.394;2023-08-20T03:06:00;11.00;;;9.80;;
64210;SDS011;72187;48.514;14.394;2023-08-20T03:06:34;10.40;;;9.50;;
64210;SDS011;72187;48.514;14.394;2023-08-20T03:07:07;13.40;;;10.20;;
64210;SDS011;72187;48.514;14.394;2023-08-20T03:07:41;11.00;;;9.90;;
64210;SDS011;72187;48.514;14.394;2023-08-20T03:08:14;11.70;;;10.50;;
64210;SDS011;72187;48.514;14.394;2023-08-20T03:08:48;11.80;;;10.60;;
64210;SDS011;72187;48.514;14.394;2023-08-20T03:09:21;12.50;;;10.80;;
64210;SDS011;72187;48.514;14.394;2023-08-20T03:09:55;12.20;;;11.00;;
64210;SDS011;72187;48.514;14.394;2023-08-20T03:10:31;12.30;;;10.70;;
64210;SDS011;72187;48.514;14.394;2023-08-20T03:11:05;12.40;;;11.10;;
64210;SDS011;72187;48.514;14.394;2023-08-20T03:11:39;12.10;;;10.80;;
64210;SDS011;72187;48.514;14.394;2023-08-20T03:12:12;12.30;;;11.20;;
64210;SDS011;72187;48.514;14.394;2023-08-20T03:12:46;13.10;;;11.70;;
64210;SDS011;72187;48.514;14.394;2023-08-20T03:13:20;13.80;;;11.30;;
64210;SDS011;72187;48.514;14.394;2023-08-20T03:13:53;12.40;;;11.20;;
64210;SDS011;72187;48.514;14.394;2023-08-20T03:14:27;12.60;;;10.90;;
64210;SDS011;72187;48.514;14.394;2023-08-20T03:15:00;12.10;;;11.00;;
64210;SDS011;72187;48.514;14.394;2023-08-20T03:15:36;14.70;;;10.40;;
64210;SDS011;72187;48.514;14.394;2023-08-20T03:16:09;11.80;;;10.60;;
64210;SDS011;72187;48.514;14.394;2023-08-20T03:16:43;12.80;;;10.40;;
64210;SDS011;72187;48.514;14.394;2023-08-20T03:17:17;13.70;;;10.50;;
64210;SDS011;72187;48.514;14.394;2023-08-20T03:17:50;11.40;;;10.40;;
64210;SDS011;72187;48.514;14.394;2023-08-20T03:18:24;11.00;;;9.90;;
64210;SDS011;72187;48.514;14.394;2023-08-20T03:18:58;10.90;;;9.60;;
64210;SDS011;72187;48.514;14.394;2023-08-20T03:19:32;10.80;;;9.70;;
64210;SDS011;72187;48.514;14.394;2023-08-20T03:20:10;11.20;;;9.90;;
64210;SDS011;72187;48.514;14.394;2023-08-20T03:20:44;11.20;;;9.80;;
64210;SDS011;72187;48.514;14.394;2023-08-20T03:21:18;11.30;;;10.10;;
64210;SDS011;72187;48.514;14.394;2023-08-20T03:21:52;11.10;;;10.00;;
64210;SDS011;72187;48.514;14.394;2023-08-20T03:22:26;11.10;;;10.00;;
64210;SDS011;72187;48.514;14.394;2023-08-20T03:23:00;12.30;;;9.20;;
64210;SDS011;72187;48.514;14.394;2023-08-20T03:23:34;10.60;;;9.50;;
64210;SDS011;72187;48.514;14.394;2023-08-20T03:24:10;11.00;;;10.00;;
64210;SDS011;72187;48.514;14.394;2023-08-20T03:24:43;10.70;;;9.60;;
64210;SDS011;72187;48.514;14.394;2023-08-20T03:25:17;10.80;;;9.80;;
64210;SDS011;72187;48.514;14.394;2023-08-20T03:25:50;11.90;;;10.30;;
64210;SDS011;72187;48.514;14.394;2023-08-20T03:26:24;10.70;;;9.60;;
64210;SDS011;72187;48.514;14.394;2023-08-20T03:26:58;12.00;;;10.00;;
64210;SDS011;72187;48.514;14.394;2023-08-20T03:27:31;11.40;;;10.30;;
64210;SDS011;72187;48.514;14.394;2023-08-20T03:28:06;13.10;;;11.00;;
64210;SDS011;72187;48.514;14.394;2023-08-20T03:28:42;12.00;;;10.90;;
64210;SDS011;72187;48.514;14.394;2023-08-20T03:29:16;11.80;;;10.60;;
64210;SDS011;72187;48.514;14.394;2023-08-20T03:29:49;12.70;;;11.40;;